Pagrindinis puslapis
METAR-TAF:

METAR-TAF

Oro uostai :

Vientianas, Laosas

platuma: 17-57N, ilguma: 102-34E, Aukštis: 171 m

Dabartinis oras

Ataskaita buvo paskelbta 3 valandos ir 52 minutes, ne 16:30 UTC
Vėjas 2 kt iš Šiaurės
Temperatūra 27°C
Drėgmė 84%
Slėgis 1010 hPa
Matomumas: 3000 m
Išsisklaidę debesys ne aukštis 5000 ft
rūkana

METAR: VLVT 201630Z 36002KT 3000 BR SCT050 27/24 Q1010 NOSIG

Laikas: 03:22 (20:22 UTC)

Prognozė

Ataskaita buvo paskelbta 3 valandos ir 22 minutes, ne 17:00 UTC
Prognozė galioja nuo 20 metu 18 UTC su 21 metu 18 UTC
Vėjas 4 kt iš Rytų
Matomumas: 4000 m
Mažai debesys ne aukštis 1600 ft
Išsisklaidę debesys ne aukštis 5000 ft
Išsisklaidę debesys ne aukštis 10000 ft
rūkana

TAF: VLVT 201700Z 2018/2118 09004KT 4000 BR FEW016 SCT050 SCT100

Orai ataskaitas ir orų prognozės (METAR, TAF).

turimą stotys yra geltonos ir raudonos taškus žemėlapyje.

Perkelti pele per norėdami pamatyti stoties vardą.

Tada spustelėkite, norėdami matyti oro stebėjimo ir prognozės.

Norėdami pakeisti žemėlapį: spustelėkite ant žalios mygtukų su juodo kryžiaus žemyn,; žalią mygtuką su brūkšneliu, jei norite nutolinti; arba žalių rodyklių gretimoms žemėlapius.


METAR-TAF: